Time;durP1;ratioP1;P1;durP2;ratioP2;P2;SDS_P1;SDS_P2;PMS_P1;PMS_P2;Temp;Humidity;BMP_temperature;BMP_pressure;BME280_temperature;BME280_humidity;BME280_pressure;Samples;Min_cycle;Max_cycle;Signal;HPM_P1;HPM_P2
2023/08/11 00:04:26;;;;;;;;;;;15.30;85.50;;;13.94;77.11;100584.84;9834217;29;96577;-95
2023/08/11 00:09:30;;;;;;;;;;;15.20;86.40;;;13.90;77.07;100602.25;9826926;29;96610;-95
2023/08/11 00:14:34;;;;;;;;;;;15.10;87.70;;;13.82;77.80;100607.66;9818839;29;95868;-96
2023/08/11 00:19:38;;;;;;;;;;;15.00;87.50;;;13.71;79.20;100605.41;9866873;29;95929;-96
2023/08/11 00:24:41;;;;;;;;;;;15.00;88.70;;;13.72;80.32;100613.22;9853910;29;96208;-95
2023/08/11 00:29:45;;;;;;;;;;;14.90;90.30;;;13.71;80.00;100618.75;9827302;29;95834;-96
2023/08/11 00:34:49;;;;;;;;;;;14.90;89.80;;;13.59;80.17;100597.81;9853585;29;95837;-95
2023/08/11 00:39:52;;;;;;;;;;;14.90;90.40;;;13.64;80.94;100611.47;9865842;29;95927;-95
2023/08/11 00:44:59;;;;;;;;;;;14.90;90.60;;;13.59;81.03;100603.16;9866521;29;95892;-95
2023/08/11 00:50:03;;;;;;;;;;;14.80;90.60;;;13.59;81.25;100610.31;9857328;29;96040;-95
2023/08/11 00:55:10;;;;;;;;;;;14.70;90.70;;;13.44;81.96;100602.25;9837044;29;95787;-95
2023/08/11 01:00:16;;;;;;;;;;;14.70;91.20;;;13.40;82.47;100616.97;9842270;29;95919;-95
2023/08/11 01:05:20;;;;;;;;;;;14.60;91.90;;;13.29;82.93;100614.69;9857139;29;95973;-96
2023/08/11 01:10:40;;;;;;;;;;;14.50;91.90;;;13.28;83.22;100623.69;9855897;29;95849;-95
2023/08/11 01:15:54;;;;;;;;;;;14.40;91.80;;;13.20;83.27;100623.72;9885866;29;95879;-96
2023/08/11 01:21:06;;;;;;;;;;;14.40;92.00;;;13.06;83.67;100610.09;9877548;29;95745;-96
2023/08/11 01:26:11;;;;;;;;;;;14.30;91.90;;;13.00;84.30;100612.63;9889201;29;96241;-96
2023/08/11 01:31:15;;;;;;;;;;;14.30;92.50;;;12.94;84.68;100606.13;9858245;29;95858;-96
2023/08/11 01:36:19;;;;;;;;;;;14.20;92.70;;;12.83;85.94;100602.03;9842039;29;95860;-96
2023/08/11 01:41:23;;;;;;;;;;;14.10;93.20;;;12.81;87.13;100621.88;9858387;29;96351;-96
2023/08/11 01:46:27;;;;;;;;;;;14.00;93.90;;;12.76;87.88;100608.22;9862355;29;95810;-96
2023/08/11 01:51:32;;;;;;;;;;;14.00;94.10;;;12.73;87.69;100616.56;9860247;29;95763;-96
2023/08/11 01:56:39;;;;;;;;;;;14.00;94.20;;;12.69;88.82;100612.56;9858328;29;95777;-95
2023/08/11 02:01:43;;;;;;;;;;;13.90;95.00;;;12.58;89.45;100606.59;9850306;29;95690;-96
2023/08/11 02:06:48;;;;;;;;;;;13.90;96.00;;;12.51;90.37;100610.13;9858465;29;95835;-96
2023/08/11 02:12:28;;;;;;;;;;;13.70;96.60;;;12.52;90.76;100631.28;9869834;29;95919;-96
2023/08/11 02:18:01;;;;;;;;;;;13.70;96.70;;;12.42;90.68;100632.47;9870262;29;97860;-85
2023/08/11 02:23:05;;;;;;;;;;;13.60;95.90;;;12.33;91.11;100629.81;9870813;29;97875;-85
2023/08/11 02:28:08;;;;;;;;;;;13.60;95.60;;;12.33;91.31;100629.81;9865831;29;96686;-85
2023/08/11 02:33:13;;;;;;;;;;;13.60;95.60;;;12.27;91.02;100619.00;9873220;29;98224;-85
2023/08/11 02:38:16;;;;;;;;;;;13.60;96.60;;;12.18;92.03;100628.84;9883128;29;97610;-85
2023/08/11 02:43:21;;;;;;;;;;;13.50;96.90;;;12.21;92.22;100620.50;9893619;29;97070;-85
2023/08/11 02:48:24;;;;;;;;;;;13.50;97.30;;;12.20;92.42;100623.34;9862403;29;96810;-85
2023/08/11 02:53:28;;;;;;;;;;;13.50;97.50;;;12.24;92.79;100622.00;9858208;29;98704;-85
2023/08/11 02:58:32;;;;;;;;;;;13.50;97.80;;;12.22;92.67;100614.16;9871323;29;98737;-85
2023/08/11 03:03:35;;;;;;;;;;;13.50;98.60;;;12.18;92.27;100625.34;9876195;29;96787;-84
2023/08/11 03:08:39;;;;;;;;;;;13.50;98.50;;;12.20;93.25;100629.50;9890198;29;96699;-85
2023/08/11 03:13:43;;;;;;;;;;;13.40;98.10;;;12.21;93.55;100630.31;9892685;29;97271;-84
2023/08/11 03:18:46;;;;;;;;;;;13.40;99.10;;;12.14;93.08;100629.34;9869978;29;98278;-85
2023/08/11 03:23:50;;;;;;;;;;;13.40;99.90;;;12.08;93.62;100635.34;9878445;29;96626;-84
2023/08/11 03:28:53;;;;;;;;;;;13.30;99.90;;;11.99;93.96;100632.66;9872739;29;96620;-84
2023/08/11 03:33:57;;;;;;;;;;;13.30;99.90;;;12.01;94.33;100636.00;9875267;29;96788;-85
2023/08/11 03:39:01;;;;;;;;;;;13.30;99.90;;;11.97;94.56;100647.16;9871353;29;98089;-84
2023/08/11 03:44:05;;;;;;;;;;;13.30;99.90;;;11.94;94.57;100650.97;9869691;29;96742;-85
2023/08/11 03:49:09;;;;;;;;;;;13.20;99.90;;;11.93;94.76;100651.13;9856608;29;97043;-85
2023/08/11 03:54:13;;;;;;;;;;;13.20;99.90;;;11.94;95.29;100658.97;9886910;29;96816;-85
2023/08/11 03:59:16;;;;;;;;;;;13.20;99.90;;;11.90;96.14;100644.31;9888772;29;100368;-84
2023/08/11 04:04:20;;;;;;;;;;;13.20;99.90;;;12.01;96.23;100645.81;9859061;29;96786;-84
2023/08/11 04:09:23;;;;;;;;;;;13.30;99.90;;;12.07;96.45;100655.81;9866508;29;97478;-85
2023/08/11 04:14:27;;;;;;;;;;;13.30;99.90;;;12.11;96.31;100656.28;9865544;29;97137;-83
2023/08/11 04:19:32;;;;;;;;;;;13.40;99.90;;;12.24;96.88;100668.13;9878087;29;96741;-84
2023/08/11 04:24:35;;;;;;;;;;;13.50;99.90;;;12.35;96.86;100674.09;9877640;29;98439;-85
2023/08/11 04:29:39;;;;;;;;;;;13.60;99.90;;;12.41;97.15;100678.75;9888095;29;96535;-85
2023/08/11 04:34:42;;;;;;;;;;;13.70;99.90;;;12.62;97.25;100694.25;9880393;29;97620;-85
2023/08/11 04:39:46;;;;;;;;;;;13.80;99.90;;;12.72;97.48;100686.91;9881775;29;98061;-84
2023/08/11 04:44:49;;;;;;;;;;;14.00;99.90;;;12.84;98.13;100696.22;9889820;29;96748;-84
2023/08/11 04:49:53;;;;;;;;;;;14.10;99.90;;;12.91;98.27;100699.84;9856920;29;97258;-85
2023/08/11 04:54:57;;;;;;;;;;;14.20;99.90;;;13.05;98.10;100717.00;9895179;29;96952;-85
2023/08/11 05:00:02;;;;;;;;;;;14.30;99.90;;;13.13;97.34;100717.81;9853882;29;97148;-85
2023/08/11 05:05:09;;;;;;;;;;;14.30;99.90;;;13.12;96.94;100716.13;9856709;29;96660;-86
2023/08/11 05:10:13;;;;;;;;;;;14.40;99.90;;;13.21;98.01;100724.16;9871331;29;96635;-86
2023/08/11 05:15:16;;;;;;;;;;;14.50;99.90;;;13.34;97.79;100733.28;9880515;29;98599;-86
2023/08/11 05:20:21;;;;;;;;;;;14.60;99.90;;;13.51;97.39;100726.03;9894024;29;97375;-86
2023/08/11 05:25:25;;;;;;;;;;;14.70;99.90;;;13.73;95.69;100734.25;9874899;29;98399;-86
2023/08/11 05:30:29;;;;;;;;;;;14.90;99.90;;;13.83;94.23;100725.00;9871928;29;97396;-86
2023/08/11 05:35:32;;;;;;;;;;;15.10;99.90;;;14.08;94.11;100733.69;9866054;29;98234;-86
2023/08/11 05:40:35;;;;;;;;;;;15.30;99.90;;;14.32;94.05;100724.66;9866466;29;98655;-86
2023/08/11 05:45:39;;;;;;;;;;;15.60;99.90;;;14.60;92.77;100732.16;9863624;29;97143;-85
2023/08/11 05:50:45;;;;;;;;;;;15.80;99.90;;;14.83;92.37;100721.41;9880621;29;98140;-86
2023/08/11 05:55:48;;;;;;;;;;;16.10;99.90;;;15.14;91.75;100722.06;9861888;29;96725;-86
2023/08/11 06:00:52;;;;;;;;;;;16.30;99.90;;;15.44;90.32;100722.88;9868815;29;96633;-86
2023/08/11 06:06:04;;;;;;;;;;;16.70;99.90;;;15.74;88.01;100731.72;9885487;29;96848;-86
2023/08/11 06:11:07;;;;;;;;;;;16.90;99.90;;;16.01;87.58;100726.66;9871963;29;96632;-86
2023/08/11 06:16:11;;;;;;;;;;;17.20;99.90;;;16.21;84.82;100735.72;9887747;29;97532;-86
2023/08/11 06:21:17;;;;;;;;;;;17.40;99.90;;;16.46;85.05;100740.69;9857136;29;96636;-86
2023/08/11 06:26:20;;;;;;;;;;;17.60;99.90;;;16.66;82.81;100732.81;9860889;29;97067;-85
2023/08/11 06:31:24;;;;;;;;;;;17.90;99.90;;;16.87;82.52;100727.44;9874456;29;96392;-86
2023/08/11 06:36:29;;;;;;;;;;;18.10;99.90;;;17.14;82.06;100731.09;9933027;29;96666;-86
2023/08/11 06:41:32;;;;;;;;;;;18.40;99.90;;;17.42;80.78;100733.75;9883033;29;98291;-86
2023/08/11 06:46:35;;;;;;;;;;;18.60;99.80;;;17.69;78.23;100740.03;9879970;29;96838;-87
2023/08/11 06:51:39;;;;;;;;;;;18.90;99.30;;;17.92;76.79;100737.03;9860323;29;96650;-86
2023/08/11 06:56:42;;;;;;;;;;;19.10;98.70;;;18.04;75.24;100734.59;9867068;29;96629;-87
2023/08/11 07:01:46;;;;;;;;;;;19.30;98.00;;;18.16;74.07;100738.34;9861646;29;97966;-87
2023/08/11 07:06:50;;;;;;;;;;;19.30;97.10;;;18.32;73.85;100743.34;9871172;29;97357;-88
2023/08/11 07:11:53;;;;;;;;;;;19.50;97.50;;;18.48;73.20;100744.81;9891028;29;98418;-87
2023/08/11 07:16:58;;;;;;;;;;;19.70;97.20;;;18.65;72.01;100734.44;9880315;29;97628;-87
2023/08/11 07:22:03;;;;;;;;;;;19.90;96.90;;;18.90;72.42;100745.44;9873629;29;96731;-87
2023/08/11 07:27:06;;;;;;;;;;;20.10;96.80;;;19.03;71.53;100747.28;9883081;29;96777;-87
2023/08/11 07:32:10;;;;;;;;;;;20.20;96.40;;;19.28;72.18;100750.13;9857294;29;97425;-87
2023/08/11 07:37:15;;;;;;;;;;;20.50;96.50;;;19.53;72.10;100751.09;9855498;29;96672;-87
2023/08/11 07:42:18;;;;;;;;;;;20.70;96.40;;;19.69;72.26;100739.03;9865476;29;96716;-87
2023/08/11 07:47:22;;;;;;;;;;;20.90;96.20;;;19.93;71.28;100732.06;9849313;29;96616;-87
2023/08/11 07:52:26;;;;;;;;;;;21.20;96.00;;;20.21;69.96;100743.31;9879421;29;97386;-87
2023/08/11 07:57:29;;;;;;;;;;;21.40;95.60;;;20.50;69.66;100741.84;9879522;29;96859;-87
2023/08/11 08:02:33;;;;;;;;;;;21.60;95.60;;;20.67;67.49;100738.63;9872795;29;96575;-87
2023/08/11 08:07:36;;;;;;;;;;;21.80;94.60;;;20.82;67.14;100750.75;9870146;29;97690;-87
2023/08/11 08:12:45;;;;;;;;;;;22.00;94.60;;;20.96;65.95;100746.03;9879362;29;96691;-88
2023/08/11 08:17:49;;;;;;;;;;;22.20;93.90;;;21.15;65.51;100751.47;9872755;29;98063;-87
2023/08/11 08:22:52;;;;;;;;;;;22.30;93.70;;;21.22;63.83;100733.28;9870279;29;96946;-88
2023/08/11 08:27:56;;;;;;;;;;;22.50;93.30;;;21.48;65.05;100748.44;9862772;29;96612;-87
2023/08/11 08:33:09;;;;;;;;;;;22.60;93.40;;;21.60;63.00;100739.31;9887617;29;97296;-88
2023/08/11 08:38:12;;;;;;;;;;;22.80;92.80;;;21.77;62.68;100738.69;9877191;29;98027;-87
2023/08/11 08:43:16;;;;;;;;;;;23.00;92.50;;;21.97;62.32;100741.97;9864209;29;97569;-87
2023/08/11 08:48:28;;;;;;;;;;;23.20;92.00;;;22.07;60.44;100730.56;9873179;29;98523;-88
2023/08/11 08:53:32;;;;;;;;;;;23.30;91.10;;;22.14;58.18;100734.88;9880908;29;97387;-89
2023/08/11 08:58:35;;;;;;;;;;;23.50;90.80;;;22.41;55.48;100737.97;9885988;29;97446;-89
2023/08/11 09:03:39;;;;;;;;;;;23.70;89.70;;;22.60;56.49;100741.41;9888593;29;96799;-88
2023/08/11 09:08:43;;;;;;;;;;;23.80;88.90;;;22.86;55.17;100750.19;9891128;29;96577;-89
2023/08/11 09:13:47;;;;;;;;;;;24.00;88.00;;;23.03;55.42;100740.31;9897935;29;96664;-89
2023/08/11 09:18:52;;;;;;;;;;;24.20;87.40;;;23.21;54.16;100745.59;9890604;29;97429;-88
2023/08/11 09:23:56;;;;;;;;;;;24.40;86.20;;;23.20;52.45;100746.63;9869489;29;97304;-89
2023/08/11 09:28:59;;;;;;;;;;;24.40;82.30;;;23.25;52.87;100737.78;9914427;29;96610;-88
2023/08/11 09:34:17;;;;;;;;;;;24.40;83.60;;;23.44;54.30;100735.75;9892071;29;96639;-88
2023/08/11 09:39:21;;;;;;;;;;;24.60;83.60;;;23.71;53.42;100733.34;9884789;29;96684;-88
2023/08/11 09:44:25;;;;;;;;;;;24.80;83.20;;;23.62;50.80;100727.47;9886036;29;96720;-89
2023/08/11 09:49:29;;;;;;;;;;;24.90;80.60;;;23.64;50.36;100735.38;9941897;29;96539;-87
2023/08/11 09:54:33;;;;;;;;;;;24.90;79.30;;;23.74;50.57;100730.94;9885463;29;98125;-87
2023/08/11 09:59:38;;;;;;;;;;;24.90;79.90;;;23.89;50.53;100732.34;9879419;29;96698;-87
2023/08/11 10:04:45;;;;;;;;;;;25.10;79.40;;;24.15;52.10;100723.56;9892730;29;96425;-87
2023/08/11 10:09:50;;;;;;;;;;;25.30;80.40;;;24.30;50.35;100717.59;9894152;29;96644;-88
2023/08/11 10:14:54;;;;;;;;;;;25.50;78.90;;;24.41;49.37;100713.16;9868748;29;96778;-87
2023/08/11 10:20:04;;;;;;;;;;;25.60;77.80;;;24.59;48.47;100715.66;9896464;29;96583;-89
2023/08/11 10:25:09;;;;;;;;;;;25.80;75.00;;;24.66;47.61;100702.72;9896632;29;96604;-88
2023/08/11 10:30:14;;;;;;;;;;;25.90;75.10;;;24.60;46.56;100711.03;9894509;29;97382;-88
2023/08/11 10:35:26;;;;;;;;;;;25.90;74.70;;;24.56;49.21;100700.66;9895221;29;96645;-89
2023/08/11 10:40:34;;;;;;;;;;;25.80;76.00;;;24.69;49.10;100698.66;9892258;29;96697;-88
2023/08/11 10:45:39;;;;;;;;;;;25.90;75.70;;;24.86;46.76;100693.22;9878287;29;97158;-89
2023/08/11 10:50:43;;;;;;;;;;;26.00;74.20;;;25.11;46.15;100696.31;9872762;29;96921;-88
2023/08/11 10:56:05;;;;;;;;;;;26.30;73.90;;;25.24;43.75;100689.66;9872752;29;97560;-89
2023/08/11 11:01:08;;;;;;;;;;;26.40;68.30;;;25.36;45.26;100683.00;9878102;29;96588;-89
2023/08/11 11:06:15;;;;;;;;;;;26.50;70.00;;;25.58;43.95;100679.47;9872322;29;97471;-89
2023/08/11 11:11:19;;;;;;;;;;;26.70;68.50;;;25.29;42.45;100682.38;9863470;29;97226;-89
2023/08/11 11:16:22;;;;;;;;;;;26.60;67.60;;;24.95;42.54;100686.25;9876990;29;97234;-89
2023/08/11 11:21:26;;;;;;;;;;;26.30;67.80;;;24.63;43.75;100688.78;9877527;29;97099;-89
2023/08/11 11:26:31;;;;;;;;;;;25.90;67.20;;;24.56;42.76;100678.09;9870419;29;98532;-89
2023/08/11 11:31:39;;;;;;;;;;;25.70;66.20;;;24.77;42.02;100680.06;9865779;29;96656;-89
2023/08/11 11:36:43;;;;;;;;;;;25.90;67.00;;;24.97;42.02;100679.50;9865655;29;96646;-89
2023/08/11 11:41:47;;;;;;;;;;;26.10;66.10;;;25.14;41.35;100681.41;9851381;29;98160;-89
2023/08/11 11:46:50;;;;;;;;;;;26.40;65.60;;;25.26;40.73;100680.19;9883486;29;98496;-87
2023/08/11 11:51:55;;;;;;;;;;;26.50;63.40;;;25.53;40.33;100682.94;9888908;29;96693;-86
2023/08/11 11:56:59;;;;;;;;;;;26.80;62.90;;;25.78;37.58;100685.13;9878336;29;96946;-87
2023/08/11 12:02:07;;;;;;;;;;;27.00;60.30;;;25.86;38.72;100692.88;9854761;29;96702;-87
2023/08/11 12:07:47;;;;;;;;;;;27.00;60.60;;;25.82;39.53;100689.00;9871729;29;97255;-87
2023/08/11 12:12:58;;;;;;;;;;;27.00;61.20;;;25.58;40.61;100679.47;9855177;29;97604;-87
2023/08/11 12:18:03;;;;;;;;;;;26.70;62.50;;;25.72;39.12;100675.25;9895443;29;96569;-86
2023/08/11 12:23:06;;;;;;;;;;;26.70;61.50;;;25.97;36.71;100677.47;9895492;29;97211;-87
2023/08/11 12:28:10;;;;;;;;;;;27.00;57.80;;;26.10;34.21;100662.59;9914951;29;96609;-87
2023/08/11 12:33:15;;;;;;;;;;;27.20;54.70;;;26.22;35.21;100674.13;9906505;29;96830;-86
2023/08/11 12:38:20;;;;;;;;;;;27.40;56.00;;;26.32;36.70;100667.91;9878330;29;96641;-86
2023/08/11 12:43:24;;;;;;;;;;;27.50;58.40;;;26.46;36.05;100668.34;9878288;29;96739;-86
2023/08/11 12:48:28;;;;;;;;;;;27.60;56.40;;;26.70;34.97;100671.50;9892267;29;96819;-86
2023/08/11 12:53:31;;;;;;;;;;;27.80;56.00;;;26.90;34.22;100669.69;9890140;29;97025;-86
2023/08/11 12:58:35;;;;;;;;;;;28.00;55.60;;;27.03;35.15;100656.66;9916523;29;96783;-86
2023/08/11 13:03:38;;;;;;;;;;;28.40;55.20;;;27.17;32.93;100660.59;9886561;29;98388;-86
2023/08/11 13:08:42;;;;;;;;;;;28.60;52.10;;;27.30;33.05;100665.56;9888993;29;96653;-85
2023/08/11 13:13:47;;;;;;;;;;;28.60;52.40;;;27.54;33.71;100660.44;9890672;29;98929;-86
2023/08/11 13:18:50;;;;;;;;;;;29.00;53.60;;;27.74;29.95;100662.41;9901961;29;98374;-86
2023/08/11 13:23:54;;;;;;;;;;;29.50;48.50;;;27.82;31.12;100663.78;9901820;29;96791;-85
2023/08/11 13:28:58;;;;;;;;;;;29.50;50.50;;;27.97;30.99;100650.97;9892241;29;97655;-87
2023/08/11 13:34:02;;;;;;;;;;;29.70;49.80;;;28.13;31.10;100653.69;9844388;29;98534;-86
2023/08/11 13:39:06;;;;;;;;;;;29.60;49.90;;;28.18;30.25;100653.69;9874214;29;98078;-86
2023/08/11 13:44:11;;;;;;;;;;;29.50;49.60;;;28.35;29.92;100650.72;9900629;29;97123;-86
2023/08/11 13:49:15;;;;;;;;;;;29.40;49.50;;;28.34;29.76;100641.69;9893105;29;96885;-85
2023/08/11 13:54:18;;;;;;;;;;;29.30;49.00;;;28.40;30.17;100654.25;9908722;29;97667;-86
2023/08/11 13:59:22;;;;;;;;;;;29.20;50.50;;;28.39;29.87;100649.06;9899396;29;97324;-87
2023/08/11 14:04:26;;;;;;;;;;;29.30;49.60;;;28.31;28.30;100647.69;9902491;29;98578;-87
2023/08/11 14:09:30;;;;;;;;;;;29.30;47.10;;;28.24;29.62;100650.69;9912079;29;97364;-87
2023/08/11 14:14:34;;;;;;;;;;;29.30;49.30;;;28.24;28.33;100638.94;9913897;29;96843;-87
2023/08/11 14:19:37;;;;;;;;;;;29.40;47.10;;;28.37;27.74;100643.91;9918709;29;96901;-87
2023/08/11 14:24:40;;;;;;;;;;;29.70;46.20;;;28.44;28.57;100644.44;9890142;29;97816;-87
2023/08/11 14:29:44;;;;;;;;;;;30.00;46.90;;;28.70;27.85;100636.16;9873915;29;96982;-87
2023/08/11 14:34:48;;;;;;;;;;;30.50;46.10;;;29.10;27.02;100634.41;9901265;29;96879;-87
2023/08/11 14:39:52;;;;;;;;;;;31.10;44.90;;;29.57;26.73;100640.22;9899970;29;96690;-87
2023/08/11 14:44:56;;;;;;;;;;;31.70;45.90;;;30.09;27.47;100635.16;9896223;29;98033;-87
2023/08/11 14:49:59;;;;;;;;;;;32.30;45.70;;;30.41;25.66;100631.88;9904870;29;96987;-88
2023/08/11 14:55:03;;;;;;;;;;;32.70;44.60;;;30.69;24.34;100635.72;9894281;29;96571;-88
2023/08/11 15:00:08;;;;;;;;;;;33.10;41.40;;;31.16;24.04;100637.63;9908258;29;96770;-88
2023/08/11 15:05:12;;;;;;;;;;;33.40;42.00;;;31.42;22.56;100638.09;9896944;29;96628;-88
2023/08/11 15:10:16;;;;;;;;;;;33.60;42.70;;;31.68;23.18;100635.81;9881085;29;97994;-88
2023/08/11 15:15:19;;;;;;;;;;;33.70;43.50;;;32.09;23.01;100631.59;9900653;29;97004;-87
2023/08/11 15:20:23;;;;;;;;;;;34.10;41.50;;;32.16;22.13;100632.88;9920400;29;96558;-87
2023/08/11 15:25:27;;;;;;;;;;;34.20;39.40;;;31.91;22.38;100636.88;9909443;29;96649;-88
2023/08/11 15:30:31;;;;;;;;;;;33.60;40.00;;;32.14;23.21;100635.09;9898005;29;97590;-88
2023/08/11 15:35:36;;;;;;;;;;;33.70;40.80;;;32.24;22.38;100634.91;9929116;29;98226;-88
2023/08/11 15:40:39;;;;;;;;;;;33.90;42.90;;;32.40;21.73;100632.75;9899235;29;96883;-88
2023/08/11 15:45:42;;;;;;;;;;;34.00;39.20;;;31.98;22.02;100636.47;9908389;29;96702;-88
2023/08/11 15:50:46;;;;;;;;;;;33.60;39.20;;;31.66;22.04;100638.03;9898674;29;97879;-88
2023/08/11 15:55:50;;;;;;;;;;;33.20;39.10;;;31.42;22.93;100646.34;9903930;29;96575;-88
2023/08/11 16:00:54;;;;;;;;;;;32.80;40.60;;;31.25;23.06;100650.72;9880472;29;96804;-89
2023/08/11 16:05:58;;;;;;;;;;;32.60;40.20;;;31.09;23.76;100653.63;9877601;29;96595;-87
2023/08/11 16:11:01;;;;;;;;;;;32.40;41.70;;;31.16;23.76;100645.84;9888686;29;96863;-88
2023/08/11 16:16:07;;;;;;;;;;;32.40;41.30;;;31.16;23.47;100639.53;9900885;29;98258;-88
2023/08/11 16:21:12;;;;;;;;;;;32.40;40.50;;;30.87;23.61;100640.44;9908269;29;97859;-88
2023/08/11 16:26:15;;;;;;;;;;;32.00;40.90;;;30.58;24.47;100634.16;9897324;29;96622;-87
2023/08/11 16:31:18;;;;;;;;;;;31.70;41.70;;;30.29;24.33;100640.50;9934077;29;98515;-87
2023/08/11 16:36:22;;;;;;;;;;;31.30;42.10;;;30.02;25.55;100649.19;9876871;29;96748;-88
2023/08/11 16:41:26;;;;;;;;;;;31.00;42.80;;;29.65;25.57;100646.19;9913886;29;96748;-86
2023/08/11 16:46:31;;;;;;;;;;;30.50;42.80;;;29.23;26.45;100650.22;9877573;29;96647;-86
2023/08/11 16:51:34;;;;;;;;;;;30.10;43.50;;;28.81;27.84;100659.66;9893541;29;96892;-87
2023/08/11 16:56:37;;;;;;;;;;;29.70;44.90;;;28.13;29.37;100640.03;9903238;29;96640;-87
2023/08/11 17:01:41;;;;;;;;;;;29.10;45.70;;;27.41;30.43;100645.41;9889126;29;98008;-87
2023/08/11 17:06:44;;;;;;;;;;;28.40;46.80;;;26.68;32.43;100666.28;9890423;29;98538;-87
2023/08/11 17:11:50;;;;;;;;;;;27.70;48.80;;;25.92;35.02;100660.25;9880415;29;96880;-87
2023/08/11 17:16:54;;;;;;;;;;;27.00;49.70;;;25.27;37.52;100668.22;9903104;29;96712;-86
2023/08/11 17:21:58;;;;;;;;;;;26.40;50.50;;;24.68;38.72;100665.25;9894428;29;96669;-87
2023/08/11 17:27:01;;;;;;;;;;;25.90;52.10;;;24.19;39.74;100672.31;9904519;29;97263;-86
2023/08/11 17:32:05;;;;;;;;;;;25.40;53.40;;;23.73;40.87;100682.38;9909796;29;96878;-86
2023/08/11 17:37:09;;;;;;;;;;;24.90;54.00;;;23.32;41.00;100681.53;9920628;29;96785;-86
2023/08/11 17:42:13;;;;;;;;;;;24.50;55.10;;;22.97;42.40;100692.47;9891830;29;97049;-87
2023/08/11 17:47:16;;;;;;;;;;;24.10;55.50;;;22.59;42.87;100682.06;9890361;29;96838;-86
2023/08/11 17:52:20;;;;;;;;;;;23.80;57.00;;;22.36;43.81;100696.41;9875774;29;96764;-85
2023/08/11 17:57:23;;;;;;;;;;;23.50;57.90;;;22.10;44.25;100700.38;9914280;29;98754;-86
2023/08/11 18:02:27;;;;;;;;;;;23.20;58.90;;;21.88;44.46;100700.84;9932139;29;96578;-86
2023/08/11 18:07:31;;;;;;;;;;;22.90;58.50;;;21.66;45.03;100699.72;9895086;29;96650;-85
2023/08/11 18:12:34;;;;;;;;;;;22.70;60.10;;;21.40;45.45;100695.47;9898008;29;96526;-85
2023/08/11 18:17:37;;;;;;;;;;;22.50;59.90;;;21.26;46.29;100715.59;9908843;29;96512;-86
2023/08/11 18:22:41;;;;;;;;;;;22.30;61.30;;;21.02;46.72;100714.59;9889950;29;96624;-86
2023/08/11 18:27:44;;;;;;;;;;;22.10;61.20;;;20.83;47.13;100722.69;9869720;29;96890;-87
2023/08/11 18:32:48;;;;;;;;;;;21.90;62.30;;;20.72;47.46;100736.91;9874698;29;96633;-86
2023/08/11 18:37:52;;;;;;;;;;;21.70;63.00;;;20.54;48.05;100723.34;9899983;29;96722;-85
2023/08/11 18:42:55;;;;;;;;;;;21.60;62.80;;;20.42;48.45;100733.19;9869861;29;97683;-86
2023/08/11 18:48:01;;;;;;;;;;;21.40;63.30;;;20.39;48.69;100742.56;9872454;29;98633;-86
2023/08/11 18:53:04;;;;;;;;;;;21.40;63.00;;;20.22;48.19;100733.34;9877410;29;97013;-86
2023/08/11 18:58:08;;;;;;;;;;;21.20;63.50;;;20.13;48.91;100746.25;9881589;29;96604;-86
2023/08/11 19:03:11;;;;;;;;;;;21.10;64.00;;;20.02;49.10;100750.44;9921258;29;97545;-85
2023/08/11 19:08:16;;;;;;;;;;;21.00;64.10;;;19.97;49.47;100758.41;9868816;29;98635;-86
2023/08/11 19:13:20;;;;;;;;;;;20.90;63.80;;;19.89;49.45;100758.63;9868819;29;96703;-85
2023/08/11 19:18:23;;;;;;;;;;;20.90;63.90;;;19.83;49.90;100764.06;9860621;29;96838;-86
2023/08/11 19:23:27;;;;;;;;;;;20.80;64.10;;;19.73;50.17;100762.66;9864595;29;96674;-85
2023/08/11 19:28:31;;;;;;;;;;;20.70;64.70;;;19.63;50.04;100756.88;9863894;29;97356;-87
2023/08/11 19:33:35;;;;;;;;;;;20.60;65.50;;;19.51;50.01;100756.69;9889156;29;97354;-86
2023/08/11 19:38:41;;;;;;;;;;;20.50;65.20;;;19.43;50.31;100754.25;9905477;29;96492;-86
2023/08/11 19:43:45;;;;;;;;;;;20.50;64.50;;;19.38;50.56;100762.13;9877098;29;96618;-89
2023/08/11 19:48:48;;;;;;;;;;;20.40;65.60;;;19.31;50.92;100757.78;9892140;29;98587;-86
2023/08/11 19:53:52;;;;;;;;;;;20.30;65.50;;;19.26;51.30;100761.13;9888210;29;96579;-87
2023/08/11 19:58:56;;;;;;;;;;;20.30;64.60;;;19.21;53.30;100766.31;9870833;29;96906;-86
2023/08/11 20:03:59;;;;;;;;;;;20.20;64.40;;;19.10;54.85;100769.66;9874030;29;97018;-86
2023/08/11 20:09:07;;;;;;;;;;;20.20;66.10;;;18.97;55.20;100776.72;9869681;29;96528;-85
2023/08/11 20:14:11;;;;;;;;;;;20.00;68.00;;;18.79;55.78;100765.75;9875238;29;96803;-87
2023/08/11 20:19:14;;;;;;;;;;;19.90;68.00;;;18.61;56.30;100763.66;9876079;29;96721;-86
2023/08/11 20:24:18;;;;;;;;;;;19.70;68.70;;;18.42;57.43;100767.16;9848258;29;97288;-84
2023/08/11 20:29:24;;;;;;;;;;;19.50;69.40;;;18.21;58.58;100760.09;9872359;29;97216;-84
2023/08/11 20:34:29;;;;;;;;;;;19.30;70.90;;;18.04;58.44;100756.09;9869440;29;98310;-84
2023/08/11 20:39:32;;;;;;;;;;;19.10;70.10;;;17.85;59.56;100766.59;9853471;29;97624;-83
2023/08/11 20:44:35;;;;;;;;;;;18.90;70.80;;;17.63;61.59;100767.72;9881402;29;96780;-84
2023/08/11 20:49:39;;;;;;;;;;;18.70;74.20;;;17.33;63.77;100773.38;9880399;29;98050;-84
2023/08/11 20:54:45;;;;;;;;;;;18.40;77.40;;;17.07;65.19;100775.88;9874771;29;96847;-84
2023/08/11 20:59:49;;;;;;;;;;;18.10;77.10;;;16.95;65.18;100775.59;9876499;29;96621;-84
2023/08/11 21:04:54;;;;;;;;;;;18.00;76.30;;;16.89;66.56;100775.56;9904304;29;96892;-84
2023/08/11 21:09:57;;;;;;;;;;;17.90;78.70;;;16.84;66.39;100773.44;9871359;29;98760;-83
2023/08/11 21:15:01;;;;;;;;;;;17.90;77.70;;;16.82;67.12;100775.50;9876782;29;96596;-83
2023/08/11 21:20:05;;;;;;;;;;;17.80;78.90;;;16.73;67.11;100764.09;9872398;29;96664;-83
2023/08/11 21:25:09;;;;;;;;;;;17.80;77.90;;;16.69;68.18;100765.47;9858333;29;96585;-84
2023/08/11 21:30:12;;;;;;;;;;;17.70;78.60;;;16.65;68.70;100774.91;9868812;29;97804;-85
2023/08/11 21:35:16;;;;;;;;;;;17.70;78.70;;;16.60;69.01;100774.66;9873246;29;96665;-85
2023/08/11 21:40:20;;;;;;;;;;;17.60;79.60;;;16.42;70.13;100779.66;9870667;29;98165;-84
2023/08/11 21:45:23;;;;;;;;;;;17.50;81.70;;;16.28;71.87;100787.56;9879685;29;96553;-84
2023/08/11 21:50:27;;;;;;;;;;;17.40;83.00;;;16.13;72.71;100784.09;9891545;29;97952;-84
2023/08/11 21:55:30;;;;;;;;;;;17.20;84.80;;;16.03;73.86;100783.59;9891177;29;98233;-83
2023/08/11 22:00:35;;;;;;;;;;;17.10;85.60;;;15.93;74.14;100777.69;9877517;29;98993;-83
2023/08/11 22:05:39;;;;;;;;;;;17.00;85.20;;;15.89;74.24;100782.59;9878700;29;96781;-84
2023/08/11 22:10:42;;;;;;;;;;;16.90;85.80;;;15.84;74.60;100784.22;9867383;29;96991;-84
2023/08/11 22:15:49;;;;;;;;;;;16.90;84.50;;;15.84;75.47;100781.53;9879412;29;98549;-84
2023/08/11 22:20:53;;;;;;;;;;;16.90;86.50;;;15.82;75.26;100778.19;9869266;29;97853;-84
2023/08/11 22:25:57;;;;;;;;;;;16.90;86.40;;;15.79;75.90;100776.72;9883341;29;98003;-85
2023/08/11 22:31:01;;;;;;;;;;;16.90;87.00;;;15.81;75.59;100788.06;9873981;29;96680;-84
2023/08/11 22:36:05;;;;;;;;;;;16.80;86.70;;;15.77;75.62;100784.09;9885412;29;96788;-85
2023/08/11 22:41:09;;;;;;;;;;;16.80;87.30;;;15.74;75.23;100771.09;9875040;29;96637;-85
2023/08/11 22:46:12;;;;;;;;;;;16.80;86.30;;;15.79;74.85;100779.41;9879714;29;97787;-85
2023/08/11 22:51:16;;;;;;;;;;;16.80;86.40;;;15.74;75.30;100765.72;9873720;29;96793;-85
2023/08/11 22:56:19;;;;;;;;;;;16.80;87.00;;;15.75;75.66;100770.91;9864195;29;96805;-85
2023/08/11 23:01:23;;;;;;;;;;;16.80;87.00;;;15.73;76.04;100775.63;9867863;29;96635;-85
2023/08/11 23:06:27;;;;;;;;;;;16.80;87.60;;;15.69;76.41;100778.84;9879006;29;98396;-85